Time;durP1;ratioP1;P1;durP2;ratioP2;P2;SDS_P1;SDS_P2;PMS_P1;PMS_P2;Temp;Humidity;BMP_temperature;BMP_pressure;BME280_temperature;BME280_humidity;BME280_pressure;Samples;Min_cycle;Max_cycle;Signal;HPM_P1;HPM_P2
2022/04/09 00:01:32;;;;;;;1.80;1.70;;;1.70;92.40;;;;;;5154255;27;20208;-66
2022/04/09 00:03:59;;;;;;;2.00;1.90;;;1.70;92.40;;;;;;5154463;27;20228;-66
2022/04/09 00:06:25;;;;;;;2.05;1.95;;;1.70;92.50;;;;;;5141000;27;20764;-68
2022/04/09 00:08:52;;;;;;;2.10;2.00;;;1.70;92.50;;;;;;5133561;27;20245;-65
2022/04/09 00:11:20;;;;;;;2.17;2.08;;;1.70;92.60;;;;;;5133683;27;20246;-65
2022/04/09 00:13:47;;;;;;;15.30;3.17;;;1.80;92.80;;;;;;5132183;27;20234;-66
2022/04/09 00:16:15;;;;;;;2.20;2.10;;;1.80;92.60;;;;;;5133257;27;20234;-68
2022/04/09 00:18:43;;;;;;;2.20;2.10;;;1.90;92.60;;;;;;5135748;27;20202;-65
2022/04/09 00:21:11;;;;;;;2.35;2.25;;;1.80;92.10;;;;;;5154548;27;20202;-67
2022/04/09 00:23:37;;;;;;;2.40;2.30;;;1.80;92.30;;;;;;5158331;27;20322;-71
2022/04/09 00:26:04;;;;;;;2.88;2.67;;;1.70;92.50;;;;;;5158126;27;20212;-64
2022/04/09 00:28:32;;;;;;;2.80;2.60;;;1.70;92.70;;;;;;5156816;27;20221;-73
2022/04/09 00:30:59;;;;;;;3.15;2.95;;;1.80;92.90;;;;;;5157863;27;20270;-73
2022/04/09 00:33:26;;;;;;;2.97;2.78;;;1.80;92.70;;;;;;5158121;27;20208;-71
2022/04/09 00:35:53;;;;;;;2.85;2.70;;;1.70;92.70;;;;;;5149068;27;20237;-70
2022/04/09 00:38:20;;;;;;;2.92;2.72;;;1.80;92.80;;;;;;5137168;27;20198;-71
2022/04/09 00:40:47;;;;;;;3.28;3.03;;;1.90;92.90;;;;;;5137155;27;20207;-69
2022/04/09 00:43:14;;;;;;;3.65;3.35;;;1.80;92.70;;;;;;5135798;27;20203;-74
2022/04/09 00:45:42;;;;;;;3.10;2.83;;;1.90;92.90;;;;;;5137102;27;20202;-68
2022/04/09 00:48:11;;;;;;;3.88;3.58;;;1.90;92.70;;;;;;5137122;27;20672;-68
2022/04/09 00:50:38;;;;;;;3.60;3.30;;;1.80;92.30;;;;;;5155745;27;20205;-71
2022/04/09 00:53:07;;;;;;;4.43;2.97;;;1.90;92.60;;;;;;5157680;27;20209;-70
2022/04/09 00:58:21;;;;;;;3.30;3.10;;;1.90;93.00;;;;;;5156194;27;20200;-63
2022/04/09 01:00:49;;;;;;;2.70;2.50;;;2.00;92.70;;;;;;5157672;27;20304;-71
2022/04/09 01:03:21;;;;;;;3.00;2.80;;;1.90;92.10;;;;;;5157608;27;20205;-71
2022/04/09 01:05:49;;;;;;;2.60;2.50;;;1.90;92.10;;;;;;5149203;27;20226;-72
2022/04/09 01:08:16;;;;;;;2.75;2.55;;;2.00;92.00;;;;;;5136588;27;20203;-66
2022/04/09 01:10:46;;;;;;;2.67;2.50;;;2.00;91.90;;;;;;5136655;27;20210;-70
2022/04/09 01:13:14;;;;;;;2.70;2.50;;;2.00;91.60;;;;;;5135097;27;20199;-68
2022/04/09 01:15:41;;;;;;;2.78;2.58;;;2.00;91.40;;;;;;5136494;27;20231;-66
2022/04/09 01:18:09;;;;;;;3.25;2.95;;;1.90;91.40;;;;;;5136506;27;20205;-68
2022/04/09 01:20:36;;;;;;;4.35;3.13;;;2.00;91.80;;;;;;5155033;27;20731;-72
2022/04/09 01:23:04;;;;;;;2.90;2.70;;;2.00;91.80;;;;;;5157021;27;20212;-64
2022/04/09 01:25:31;;;;;;;3.30;3.00;;;2.10;91.70;;;;;;5157164;27;20202;-66
2022/04/09 01:27:58;;;;;;;3.25;3.00;;;2.10;91.40;;;;;;5155655;27;20652;-72
2022/04/09 01:30:25;;;;;;;3.40;3.17;;;2.00;91.50;;;;;;5156815;27;20230;-71
2022/04/09 01:32:52;;;;;;;3.70;3.40;;;2.10;91.70;;;;;;5156501;27;20202;-70
2022/04/09 01:35:19;;;;;;;3.40;3.10;;;2.10;91.30;;;;;;5152720;27;20231;-71
2022/04/09 01:37:46;;;;;;;4.10;3.40;;;2.00;91.30;;;;;;5136054;27;20217;-70
2022/04/09 01:40:14;;;;;;;4.45;3.60;;;2.10;91.70;;;;;;5136029;27;20301;-70
2022/04/09 01:42:41;;;;;;;4.65;3.70;;;2.20;91.60;;;;;;5134711;27;20209;-73
2022/04/09 01:45:09;;;;;;;5.03;4.22;;;2.20;91.30;;;;;;5135964;27;20203;-71
2022/04/09 01:47:40;;;;;;;3.58;3.35;;;2.20;91.20;;;;;;5135907;27;20209;-71
2022/04/09 01:50:09;;;;;;;4.03;3.67;;;2.30;91.10;;;;;;5150140;27;20233;-68
2022/04/09 01:52:36;;;;;;;3.80;3.50;;;2.30;90.90;;;;;;5156567;27;20198;-70
2022/04/09 01:55:04;;;;;;;4.05;3.75;;;2.30;90.70;;;;;;5156521;27;20712;-72
2022/04/09 01:57:32;;;;;;;3.88;3.50;;;2.30;90.30;;;;;;5155115;27;20566;-67
2022/04/09 01:59:59;;;;;;;4.28;3.67;;;2.30;90.30;;;;;;5156123;27;20285;-69
2022/04/09 02:02:26;;;;;;;6.68;4.55;;;2.20;90.50;;;;;;5156330;27;20609;-71
2022/04/09 02:04:53;;;;;;;4.88;3.90;;;2.20;91.00;;;;;;5155853;27;20308;-69
2022/04/09 02:07:20;;;;;;;5.10;4.40;;;2.30;91.00;;;;;;5135699;27;20207;-70
2022/04/09 02:09:47;;;;;;;7.50;4.90;;;2.30;91.10;;;;;;5135440;27;20222;-69
2022/04/09 02:12:19;;;;;;;5.53;4.80;;;2.40;91.00;;;;;;5134042;27;20858;-69
2022/04/09 02:14:47;;;;;;;4.70;4.18;;;2.50;90.70;;;;;;5135079;27;20198;-70
2022/04/09 02:17:14;;;;;;;7.82;4.65;;;2.50;90.30;;;;;;5135187;27;20321;-68
2022/04/09 02:19:41;;;;;;;7.88;5.60;;;2.60;90.40;;;;;;5146076;27;20208;-69
2022/04/09 02:22:08;;;;;;;4.70;4.18;;;2.70;90.10;;;;;;5155985;27;20248;-68
2022/04/09 02:24:35;;;;;;;6.43;5.15;;;2.70;90.10;;;;;;5155792;27;20230;-69
2022/04/09 02:27:08;;;;;;;5.35;4.65;;;2.70;89.60;;;;;;5154503;27;20198;-69
2022/04/09 02:29:35;;;;;;;5.78;5.18;;;2.70;89.60;;;;;;5155668;27;20293;-68
2022/04/09 02:32:05;;;;;;;7.50;5.13;;;2.70;89.30;;;;;;5155536;27;20257;-68
2022/04/09 02:34:32;;;;;;;5.75;5.25;;;2.70;89.60;;;;;;5155942;27;20297;-68
2022/04/09 02:36:59;;;;;;;8.38;5.13;;;2.70;89.60;;;;;;5137327;27;20235;-68
2022/04/09 02:39:26;;;;;;;6.03;5.18;;;2.70;89.40;;;;;;5134903;27;20245;-69
2022/04/09 02:41:52;;;;;;;7.03;5.10;;;2.60;89.40;;;;;;5134565;27;20224;-69
2022/04/09 02:44:20;;;;;;;6.22;5.10;;;2.60;89.40;;;;;;5133630;27;20699;-71
2022/04/09 02:46:47;;;;;;;6.70;6.00;;;2.50;89.20;;;;;;5134071;27;20205;-69
2022/04/09 02:49:16;;;;;;;5.25;4.75;;;2.50;89.40;;;;;;5141405;27;20209;-67
2022/04/09 02:51:43;;;;;;;5.82;5.07;;;2.50;89.70;;;;;;5155385;27;20298;-67
2022/04/09 02:54:15;;;;;;;6.57;5.15;;;2.40;89.80;;;;;;5155346;27;20198;-69
2022/04/09 02:56:42;;;;;;;6.68;5.00;;;2.40;90.10;;;;;;5155070;27;20233;-68
2022/04/09 02:59:10;;;;;;;6.40;4.80;;;2.40;90.10;;;;;;5153700;27;20198;-67
2022/04/09 03:01:37;;;;;;;6.22;5.47;;;2.40;90.00;;;;;;5155193;27;20206;-67
2022/04/09 03:04:04;;;;;;;7.53;5.15;;;2.30;90.10;;;;;;5155099;27;20212;-71
2022/04/09 03:06:32;;;;;;;4.85;4.28;;;2.30;90.20;;;;;;5141104;27;20213;-69
2022/04/09 03:08:59;;;;;;;8.23;4.88;;;2.30;90.40;;;;;;5134249;27;20234;-68
2022/04/09 03:11:26;;;;;;;5.40;4.90;;;2.40;90.50;;;;;;5134192;27;20213;-75
2022/04/09 03:13:53;;;;;;;5.50;5.00;;;2.40;90.20;;;;;;5132786;27;20224;-68
2022/04/09 03:16:22;;;;;;;5.68;5.00;;;2.40;90.40;;;;;;5134249;27;20241;-68
2022/04/09 03:18:49;;;;;;;5.22;4.72;;;2.50;90.40;;;;;;5137501;27;20206;-68
2022/04/09 03:21:16;;;;;;;5.13;4.05;;;2.30;90.10;;;;;;5154858;27;20210;-68
2022/04/09 03:23:44;;;;;;;6.50;4.63;;;2.40;90.50;;;;;;5154951;27;20202;-70
2022/04/09 03:26:11;;;;;;;5.22;4.57;;;2.30;90.40;;;;;;5154722;27;20417;-70
2022/04/09 03:28:38;;;;;;;5.38;4.88;;;2.30;90.80;;;;;;5153329;27;20226;-70
2022/04/09 03:31:06;;;;;;;5.32;4.72;;;2.20;90.60;;;;;;5154484;27;20232;-70
2022/04/09 03:33:33;;;;;;;5.97;5.40;;;2.10;91.20;;;;;;5154718;27;20208;-69
2022/04/09 03:36:00;;;;;;;7.07;5.47;;;2.20;91.50;;;;;;5144733;27;20688;-68
2022/04/09 03:38:28;;;;;;;6.97;5.75;;;2.30;91.20;;;;;;5133889;27;20637;-69
2022/04/09 03:40:56;;;;;;;7.60;5.43;;;2.30;91.00;;;;;;5133965;27;20202;-65
2022/04/09 03:43:23;;;;;;;9.55;6.70;;;2.30;91.00;;;;;;5132319;27;20199;-64
2022/04/09 03:45:50;;;;;;;8.30;6.75;;;2.30;90.90;;;;;;5133858;27;20679;-65
2022/04/09 03:48:17;;;;;;;10.10;8.07;;;2.40;90.80;;;;;;5133898;27;20245;-70
2022/04/09 03:50:43;;;;;;;9.07;6.43;;;2.40;90.50;;;;;;5153499;27;20284;-73
2022/04/09 03:53:10;;;;;;;11.73;7.50;;;2.40;90.50;;;;;;5154546;27;20202;-68
2022/04/09 03:55:37;;;;;;;10.65;7.78;;;2.40;90.70;;;;;;5154330;27;20202;-63
2022/04/09 03:58:06;;;;;;;10.57;7.65;;;2.40;90.60;;;;;;5156755;27;20559;-69
2022/04/09 04:00:32;;;;;;;12.23;8.80;;;2.30;90.40;;;;;;5158590;27;20668;-67
2022/04/09 04:02:59;;;;;;;12.30;8.82;;;2.20;90.90;;;;;;5158568;27;20234;-65
2022/04/09 04:05:26;;;;;;;12.43;8.32;;;2.20;91.10;;;;;;5153665;27;20261;-59
2022/04/09 04:07:53;;;;;;;14.32;8.98;;;2.10;91.40;;;;;;5137798;27;20213;-71
2022/04/09 04:10:20;;;;;;;13.85;9.63;;;2.10;91.60;;;;;;5137740;27;20212;-61
2022/04/09 04:12:47;;;;;;;16.10;9.98;;;2.10;91.90;;;;;;5136536;27;20207;-65
2022/04/09 04:15:15;;;;;;;16.70;11.48;;;2.20;91.60;;;;;;5137566;27;20249;-63
2022/04/09 04:17:43;;;;;;;15.90;10.80;;;2.30;91.60;;;;;;5137749;27;20313;-69
2022/04/09 04:20:12;;;;;;;19.27;10.40;;;2.30;91.20;;;;;;5152234;27;20206;-63
2022/04/09 04:22:39;;;;;;;16.90;9.93;;;2.30;91.50;;;;;;5158440;27;20609;-74
2022/04/09 04:25:06;;;;;;;15.65;11.13;;;2.40;91.20;;;;;;5158315;27;20298;-67
2022/04/09 04:27:33;;;;;;;21.90;11.68;;;2.30;90.90;;;;;;5156907;27;20560;-63
2022/04/09 04:30:00;;;;;;;17.23;11.75;;;2.30;91.20;;;;;;5157800;27;20555;-68
2022/04/09 04:32:38;;;;;;;19.63;11.70;;;2.30;90.90;;;;;;5158132;27;20214;-65
2022/04/09 04:35:05;;;;;;;18.45;12.25;;;2.20;90.80;;;;;;5156177;27;20208;-68
2022/04/09 04:37:37;;;;;;;21.90;12.38;;;2.20;91.50;;;;;;5137224;27;20585;-65
2022/04/09 04:40:05;;;;;;;16.35;11.80;;;2.30;91.50;;;;;;5137228;27;20210;-64
2022/04/09 04:42:32;;;;;;;23.45;12.80;;;2.30;90.90;;;;;;5135854;27;20289;-67
2022/04/09 04:45:05;;;;;;;20.27;12.60;;;2.30;90.90;;;;;;5137072;27;20202;-69
2022/04/09 04:47:32;;;;;;;18.23;12.30;;;2.30;90.80;;;;;;5136910;27;20203;-65
2022/04/09 04:50:04;;;;;;;19.08;11.63;;;2.30;90.80;;;;;;5146759;27;20201;-68
2022/04/09 04:52:37;;;;;;;21.65;10.88;;;2.20;90.70;;;;;;5157777;27;20668;-67
2022/04/09 04:55:04;;;;;;;21.80;13.13;;;2.10;91.10;;;;;;5157691;27;20667;-65
2022/04/09 04:57:40;;;;;;;18.55;12.25;;;2.20;90.90;;;;;;5156171;27;20231;-60
2022/04/09 05:00:08;;;;;;;21.88;12.10;;;2.10;90.90;;;;;;5157344;27;20398;-64
2022/04/09 05:02:35;;;;;;;19.70;12.23;;;2.10;90.80;;;;;;5157481;27;20243;-66
2022/04/09 05:05:04;;;;;;;19.45;12.43;;;2.10;91.20;;;;;;5155758;27;20222;-63
2022/04/09 05:07:42;;;;;;;19.75;12.23;;;2.10;91.10;;;;;;5136393;27;20559;-70
2022/04/09 05:10:11;;;;;;;17.23;10.77;;;2.00;91.20;;;;;;5136339;27;20570;-63
2022/04/09 05:12:38;;;;;;;20.33;11.75;;;2.00;91.20;;;;;;5135223;27;20202;-63
2022/04/09 05:15:07;;;;;;;16.92;11.50;;;1.90;91.10;;;;;;5136546;27;20199;-64
2022/04/09 05:17:35;;;;;;;16.48;10.70;;;1.90;91.40;;;;;;5136522;27;20326;-63
2022/04/09 05:20:04;;;;;;;14.95;11.27;;;2.00;91.40;;;;;;5150040;27;20288;-61
2022/04/09 05:22:31;;;;;;;18.30;11.73;;;1.90;90.90;;;;;;5157201;27;20744;-63
2022/04/09 05:24:58;;;;;;;19.88;10.85;;;1.90;91.20;;;;;;5156894;27;20292;-59
2022/04/09 05:27:26;;;;;;;17.45;11.70;;;1.90;91.40;;;;;;5155766;27;20225;-58
2022/04/09 05:29:53;;;;;;;18.45;11.90;;;1.90;91.40;;;;;;5156818;27;20206;-63
2022/04/09 05:32:20;;;;;;;17.95;11.93;;;1.90;91.60;;;;;;5156887;27;20228;-63
2022/04/09 05:34:47;;;;;;;15.63;11.55;;;2.00;91.80;;;;;;5156963;27;20735;-63
2022/04/09 05:37:15;;;;;;;16.42;12.30;;;1.90;91.00;;;;;;5136442;27;20230;-65
2022/04/09 05:39:42;;;;;;;18.33;12.07;;;1.90;90.90;;;;;;5136047;27;20199;-62
2022/04/09 05:42:09;;;;;;;16.42;11.35;;;1.90;90.90;;;;;;5134757;27;20649;-58
2022/04/09 05:44:36;;;;;;;14.93;10.90;;;1.90;91.10;;;;;;5135865;27;20207;-63
2022/04/09 05:47:04;;;;;;;15.55;11.73;;;1.80;90.60;;;;;;5135944;27;20206;-61
2022/04/09 05:49:30;;;;;;;16.60;12.10;;;1.90;91.30;;;;;;5145051;27;20578;-60
2022/04/09 05:51:58;;;;;;;16.65;12.20;;;2.10;91.10;;;;;;5156495;27;20206;-59
2022/04/09 05:54:26;;;;;;;15.43;11.35;;;2.10;90.60;;;;;;5156683;27;20275;-62
2022/04/09 05:56:53;;;;;;;18.33;12.40;;;2.10;90.70;;;;;;5156179;27;20225;-58
2022/04/09 05:59:20;;;;;;;16.70;11.90;;;2.30;90.90;;;;;;5155514;27;20198;-62
2022/04/09 06:01:47;;;;;;;16.65;12.25;;;2.10;89.90;;;;;;5156279;27;20621;-62
2022/04/09 06:04:19;;;;;;;13.98;10.57;;;2.10;90.00;;;;;;5156182;27;20301;-58
2022/04/09 06:06:46;;;;;;;16.75;12.00;;;2.10;90.10;;;;;;5139783;27;20206;-62
2022/04/09 06:09:13;;;;;;;14.80;11.40;;;1.90;89.40;;;;;;5135703;27;20203;-62
2022/04/09 06:11:41;;;;;;;15.43;9.98;;;1.80;90.00;;;;;;5135519;27;20208;-58
2022/04/09 06:14:08;;;;;;;18.10;11.50;;;1.80;90.40;;;;;;5133845;27;20293;-61
2022/04/09 06:16:38;;;;;;;16.50;12.45;;;1.80;90.50;;;;;;5135397;27;20323;-57
2022/04/09 06:19:05;;;;;;;14.45;11.10;;;1.90;90.80;;;;;;5140535;27;20202;-60
2022/04/09 06:21:33;;;;;;;16.50;13.38;;;1.80;90.40;;;;;;5156003;27;20198;-61
2022/04/09 06:24:00;;;;;;;13.05;11.38;;;1.90;90.50;;;;;;5156084;27;20208;-58
2022/04/09 06:26:27;;;;;;;12.52;10.95;;;1.80;90.40;;;;;;5156173;27;20201;-55
2022/04/09 06:28:55;;;;;;;15.50;10.98;;;1.70;90.60;;;;;;5154692;27;20563;-59
2022/04/09 06:31:22;;;;;;;16.75;11.63;;;1.60;90.60;;;;;;5155681;27;20230;-58
2022/04/09 06:33:49;;;;;;;14.55;10.98;;;1.60;90.80;;;;;;5155602;27;20204;-61
2022/04/09 06:36:16;;;;;;;14.18;10.95;;;1.80;91.20;;;;;;5143499;27;20206;-59
2022/04/09 06:38:43;;;;;;;11.10;9.45;;;2.00;91.50;;;;;;5134893;27;20321;-60
2022/04/09 06:41:10;;;;;;;14.07;10.50;;;2.00;91.10;;;;;;5134800;27;20251;-61
2022/04/09 06:43:37;;;;;;;16.67;9.45;;;1.80;90.20;;;;;;5133488;27;20234;-58
2022/04/09 06:46:05;;;;;;;13.80;10.07;;;1.80;90.50;;;;;;5134600;27;20203;-59
2022/04/09 06:48:32;;;;;;;11.70;10.05;;;1.70;90.30;;;;;;5135332;27;20213;-59
2022/04/09 06:51:03;;;;;;;14.38;9.25;;;1.70;90.70;;;;;;5141930;27;20206;-58
2022/04/09 06:53:30;;;;;;;13.25;11.05;;;1.60;90.90;;;;;;5126634;27;20210;-59
2022/04/09 06:55:57;;;;;;;12.98;10.15;;;1.60;90.60;;;;;;5134621;27;20199;-58
2022/04/09 06:58:24;;;;;;;12.88;10.73;;;1.60;91.20;;;;;;5133134;27;20316;-59
2022/04/09 07:00:51;;;;;;;10.95;9.80;;;1.70;91.50;;;;;;5134435;27;20285;-60
2022/04/09 07:03:19;;;;;;;18.50;10.45;;;1.70;91.20;;;;;;5134473;27;20223;-59
2022/04/09 07:05:46;;;;;;;17.70;9.35;;;1.70;91.50;;;;;;5134363;27;20203;-60
2022/04/09 07:08:13;;;;;;;15.20;10.70;;;1.80;91.50;;;;;;5134331;27;20290;-59
2022/04/09 07:10:40;;;;;;;13.07;10.80;;;1.80;90.70;;;;;;5134340;27;20289;-59
2022/04/09 07:13:07;;;;;;;12.05;10.65;;;1.90;90.70;;;;;;5133015;27;20209;-58
2022/04/09 07:15:34;;;;;;;15.82;11.73;;;1.90;90.80;;;;;;5134124;27;20195;-59
2022/04/09 07:18:02;;;;;;;12.38;10.63;;;1.90;90.40;;;;;;5134293;27;20229;-61
2022/04/09 07:20:30;;;;;;;14.98;10.52;;;2.10;91.10;;;;;;5133968;27;20293;-58
2022/04/09 07:22:57;;;;;;;12.98;10.18;;;2.00;90.40;;;;;;5134145;27;20227;-59
2022/04/09 07:25:24;;;;;;;13.50;9.70;;;2.10;90.20;;;;;;5134342;27;20733;-59
2022/04/09 07:27:51;;;;;;;14.80;10.45;;;2.20;90.70;;;;;;5132913;27;20263;-59
2022/04/09 07:30:20;;;;;;;14.05;10.27;;;2.30;90.50;;;;;;5133873;27;20325;-59
2022/04/09 07:32:48;;;;;;;12.23;10.32;;;2.30;90.10;;;;;;5133476;27;20259;-59
2022/04/09 07:35:16;;;;;;;12.45;10.55;;;2.30;89.20;;;;;;5133896;27;20204;-59
2022/04/09 07:37:45;;;;;;;11.27;9.70;;;2.30;89.40;;;;;;5133928;27;20265;-59
2022/04/09 07:40:14;;;;;;;13.68;10.80;;;2.30;90.30;;;;;;5133990;27;20199;-59
2022/04/09 07:42:44;;;;;;;12.73;10.40;;;2.40;89.90;;;;;;5132478;27;20293;-58
2022/04/09 07:45:12;;;;;;;14.07;9.40;;;2.50;89.30;;;;;;5133930;27;20209;-59
2022/04/09 07:47:39;;;;;;;15.02;10.23;;;2.60;89.60;;;;;;5133908;27;20207;-60
2022/04/09 07:50:10;;;;;;;13.32;10.27;;;2.70;90.00;;;;;;5133851;27;20285;-59
2022/04/09 07:52:38;;;;;;;13.05;8.63;;;2.80;89.60;;;;;;5133840;27;20564;-60
2022/04/09 07:55:08;;;;;;;11.15;9.70;;;2.90;89.30;;;;;;5133591;27;20213;-60
2022/04/09 07:57:35;;;;;;;9.10;8.18;;;2.90;86.90;;;;;;5132534;27;20309;-60
2022/04/09 08:00:02;;;;;;;11.13;9.65;;;2.90;87.70;;;;;;5133648;27;20210;-60
2022/04/09 08:02:29;;;;;;;11.90;10.73;;;3.00;87.60;;;;;;5133574;27;20309;-60
2022/04/09 08:04:56;;;;;;;11.57;10.30;;;3.20;88.00;;;;;;5133538;27;20202;-61
2022/04/09 08:07:23;;;;;;;13.57;9.52;;;3.30;87.30;;;;;;5133546;27;20666;-59
2022/04/09 08:09:50;;;;;;;11.10;9.52;;;3.50;87.00;;;;;;5133440;27;20289;-61
2022/04/09 08:12:18;;;;;;;12.35;9.45;;;3.50;85.90;;;;;;5132453;27;20238;-61
2022/04/09 08:14:45;;;;;;;10.85;8.82;;;3.80;87.20;;;;;;5133625;27;20245;-59
2022/04/09 08:17:13;;;;;;;9.68;8.27;;;4.00;86.70;;;;;;5133384;27;20747;-60
2022/04/09 08:19:40;;;;;;;10.40;8.50;;;4.00;85.30;;;;;;5133414;27;20657;-61
2022/04/09 08:22:09;;;;;;;10.18;8.38;;;4.00;85.10;;;;;;5133280;27;20203;-61
2022/04/09 08:24:37;;;;;;;9.60;8.50;;;4.00;85.00;;;;;;5133355;27;20498;-59
2022/04/09 08:27:04;;;;;;;10.48;8.45;;;4.00;85.10;;;;;;5132101;27;20290;-60
2022/04/09 08:29:32;;;;;;;9.27;8.35;;;4.10;85.30;;;;;;5133522;27;20203;-59
2022/04/09 08:32:01;;;;;;;9.60;8.25;;;4.20;85.70;;;;;;5133332;27;20269;-59
2022/04/09 08:34:29;;;;;;;11.20;7.30;;;4.20;85.50;;;;;;5133350;27;20199;-60
2022/04/09 08:36:57;;;;;;;11.82;8.98;;;4.30;85.60;;;;;;5133122;27;20210;-62
2022/04/09 08:39:23;;;;;;;9.88;7.75;;;4.50;85.60;;;;;;5133220;27;20237;-60
2022/04/09 08:41:53;;;;;;;9.07;6.80;;;4.60;85.10;;;;;;5133298;27;20622;-61
2022/04/09 08:44:21;;;;;;;10.05;7.35;;;4.80;85.20;;;;;;5134472;27;20740;-61
2022/04/09 08:46:49;;;;;;;8.48;7.43;;;4.90;84.80;;;;;;5137062;27;20209;-60
2022/04/09 08:49:16;;;;;;;11.38;7.35;;;4.90;84.10;;;;;;5137049;27;20301;-61
2022/04/09 08:51:43;;;;;;;8.30;7.07;;;4.90;84.30;;;;;;5136715;27;20206;-62
2022/04/09 08:54:11;;;;;;;8.68;6.15;;;5.00;83.80;;;;;;5137128;27;20293;-61
2022/04/09 08:56:38;;;;;;;7.55;6.18;;;4.80;83.10;;;;;;5137042;27;20194;-59
2022/04/09 08:59:05;;;;;;;9.38;7.05;;;4.50;83.40;;;;;;5135577;27;20261;-61
2022/04/09 09:01:33;;;;;;;9.13;6.90;;;4.30;82.80;;;;;;5136810;27;20205;-61
2022/04/09 09:04:02;;;;;;;13.63;6.22;;;4.20;83.60;;;;;;5136517;27;20215;-59
2022/04/09 09:06:30;;;;;;;10.43;6.30;;;4.30;84.40;;;;;;5136686;27;20209;-64
2022/04/09 09:08:57;;;;;;;7.80;5.93;;;4.50;84.90;;;;;;5136739;27;20252;-61
2022/04/09 09:11:26;;;;;;;8.40;5.85;;;4.60;84.60;;;;;;5136673;27;20198;-61
2022/04/09 09:13:54;;;;;;;9.15;6.03;;;4.80;84.20;;;;;;5135444;27;20213;-61
2022/04/09 09:16:27;;;;;;;8.70;5.72;;;4.90;84.40;;;;;;5136540;27;20203;-61
2022/04/09 09:18:56;;;;;;;8.07;5.30;;;5.10;84.40;;;;;;5136423;27;20252;-59
2022/04/09 09:21:26;;;;;;;8.70;5.82;;;4.90;81.50;;;;;;5136167;27;20213;-61
2022/04/09 09:23:54;;;;;;;11.38;5.75;;;4.60;81.20;;;;;;5136525;27;20199;-60
2022/04/09 09:26:23;;;;;;;10.80;5.70;;;4.50;83.20;;;;;;5136312;27;20297;-58
2022/04/09 09:28:57;;;;;;;5.95;5.15;;;4.50;82.20;;;;;;5135050;27;20198;-60
2022/04/09 09:31:50;;;;;;;7.90;6.60;;;4.60;83.50;;;;;;5136050;27;20318;-60
2022/04/09 09:34:19;;;;;;;11.13;6.40;;;4.70;82.20;;;;;;5121585;27;20256;-60
2022/04/09 09:36:49;;;;;;;10.02;5.97;;;4.90;83.00;;;;;;5136026;27;20210;-60
2022/04/09 09:39:17;;;;;;;10.10;5.93;;;5.20;83.50;;;;;;5136166;27;20237;-61
2022/04/09 09:41:49;;;;;;;8.63;6.10;;;5.50;82.50;;;;;;5135953;27;20293;-60
2022/04/09 09:44:17;;;;;;;7.30;6.28;;;5.70;82.30;;;;;;5134587;27;20203;-60
2022/04/09 09:46:45;;;;;;;7.80;7.00;;;5.60;78.80;;;;;;5135962;27;20206;-60
2022/04/09 09:49:12;;;;;;;7.60;6.47;;;5.40;76.70;;;;;;5135868;27;20661;-59
2022/04/09 09:51:39;;;;;;;8.20;7.43;;;5.30;78.70;;;;;;5135779;27;20207;-60
2022/04/09 09:54:09;;;;;;;7.72;6.70;;;5.10;78.30;;;;;;5135123;27;20198;-60
2022/04/09 09:56:37;;;;;;;11.05;7.10;;;4.90;79.70;;;;;;5135800;27;20558;-59
2022/04/09 09:59:06;;;;;;;11.15;7.57;;;5.00;81.50;;;;;;5134197;27;20227;-60
2022/04/09 10:01:36;;;;;;;9.73;6.90;;;5.20;81.20;;;;;;5135560;27;20222;-60
2022/04/09 10:04:05;;;;;;;8.05;7.25;;;5.20;79.40;;;;;;5135453;27;20213;-61
2022/04/09 10:06:33;;;;;;;8.88;7.05;;;5.50;80.40;;;;;;5135412;27;20203;-60
2022/04/09 10:09:00;;;;;;;6.93;6.32;;;5.60;82.40;;;;;;5135415;27;20202;-60
2022/04/09 10:11:29;;;;;;;10.38;7.50;;;5.60;77.60;;;;;;5135543;27;20310;-60
2022/04/09 10:13:57;;;;;;;7.63;6.45;;;5.60;75.90;;;;;;5134136;27;20294;-60
2022/04/09 10:16:27;;;;;;;7.90;7.07;;;5.50;79.90;;;;;;5135305;27;20207;-60
2022/04/09 10:18:59;;;;;;;8.50;7.70;;;5.50;78.50;;;;;;5135177;27;20234;-61
2022/04/09 10:21:27;;;;;;;8.38;7.55;;;5.80;78.80;;;;;;5135012;27;20309;-61
2022/04/09 10:23:56;;;;;;;8.48;7.60;;;6.20;77.80;;;;;;5135258;27;20289;-61
2022/04/09 10:26:24;;;;;;;8.27;7.45;;;6.40;75.60;;;;;;5135149;27;20205;-61
2022/04/09 10:28:52;;;;;;;8.50;7.90;;;6.40;74.20;;;;;;5133748;27;20199;-60
2022/04/09 10:31:33;;;;;;;8.63;7.93;;;6.30;74.10;;;;;;5135004;27;20326;-60
2022/04/09 10:34:01;;;;;;;7.68;6.65;;;6.20;74.10;;;;;;5134886;27;20206;-61
2022/04/09 10:37:03;;;;;;;7.80;7.30;;;6.00;74.80;;;;;;5134928;27;20195;-59
2022/04/09 10:39:46;;;;;;;7.18;6.57;;;5.90;74.80;;;;;;5134824;27;20257;-58
2022/04/09 10:42:46;;;;;;;9.50;7.38;;;5.80;74.00;;;;;;5131172;27;20202;-59
2022/04/09 10:45:14;;;;;;;9.18;8.32;;;6.10;77.70;;;;;;5134728;27;20206;-60
2022/04/09 10:48:06;;;;;;;9.65;8.40;;;6.20;74.30;;;;;;5134692;27;20226;-61
2022/04/09 10:50:55;;;;;;;9.23;8.60;;;6.40;72.80;;;;;;5134458;27;20669;-60
2022/04/09 10:53:23;;;;;;;9.98;9.27;;;6.40;71.20;;;;;;5134590;27;20205;-60
2022/04/09 10:56:12;;;;;;;9.35;8.85;;;6.30;72.20;;;;;;5134673;27;20199;-60
2022/04/09 10:59:04;;;;;;;8.85;8.15;;;6.30;71.90;;;;;;5133031;27;20222;-59
2022/04/09 11:01:53;;;;;;;9.90;9.00;;;6.40;71.40;;;;;;5134429;27;20303;-59
2022/04/09 11:04:42;;;;;;;9.40;8.50;;;6.40;71.90;;;;;;5134443;27;20203;-59
2022/04/09 11:07:14;;;;;;;9.85;9.20;;;6.50;70.50;;;;;;5133246;27;20206;-58
2022/04/09 11:09:58;;;;;;;10.32;9.52;;;6.40;70.40;;;;;;5134318;27;20251;-59
2022/04/09 11:12:27;;;;;;;8.98;8.38;;;6.40;71.00;;;;;;5131901;27;20199;-58
2022/04/09 11:14:56;;;;;;;8.98;8.18;;;6.50;70.50;;;;;;5134313;27;20530;-60
2022/04/09 11:17:30;;;;;;;9.80;9.20;;;6.50;69.30;;;;;;5134088;27;20634;-60
2022/04/09 11:20:00;;;;;;;11.65;10.75;;;6.80;69.90;;;;;;5134076;27;20261;-60
2022/04/09 11:22:35;;;;;;;10.63;9.93;;;7.40;67.60;;;;;;5134024;27;20199;-60
2022/04/09 11:25:02;;;;;;;12.60;11.32;;;8.00;64.40;;;;;;5134244;27;20206;-60
2022/04/09 11:27:31;;;;;;;10.23;9.25;;;7.80;68.10;;;;;;5132816;27;20305;-60
2022/04/09 11:29:59;;;;;;;10.55;9.85;;;7.70;66.80;;;;;;5133805;27;20199;-60
2022/04/09 11:32:28;;;;;;;9.82;9.20;;;7.70;67.70;;;;;;5134201;27;20283;-59
2022/04/09 11:34:57;;;;;;;11.40;10.40;;;7.80;66.80;;;;;;5134054;27;20195;-60
2022/04/09 11:37:26;;;;;;;9.00;8.40;;;7.90;65.60;;;;;;5133802;27;20290;-59
2022/04/09 11:39:54;;;;;;;10.60;9.98;;;8.10;66.20;;;;;;5133823;27;20599;-59
2022/04/09 11:42:21;;;;;;;9.65;9.15;;;8.00;67.20;;;;;;5132630;27;20604;-59
2022/04/09 11:44:48;;;;;;;11.10;10.30;;;8.20;67.80;;;;;;5133824;27;20209;-59
2022/04/09 11:47:17;;;;;;;11.70;10.90;;;8.50;65.10;;;;;;5133765;27;20202;-59
2022/04/09 11:49:47;;;;;;;12.10;10.10;;;8.50;63.10;;;;;;5133788;27;20205;-60
2022/04/09 11:52:25;;;;;;;9.38;8.68;;;8.60;66.40;;;;;;5133636;27;20222;-59
2022/04/09 11:54:53;;;;;;;8.80;8.27;;;9.10;65.20;;;;;;5133722;27;20209;-59
2022/04/09 11:57:20;;;;;;;11.45;10.85;;;9.50;61.50;;;;;;5132170;27;20214;-57
2022/04/09 11:59:52;;;;;;;9.35;8.65;;;9.40;62.30;;;;;;5133599;27;20642;-57
2022/04/09 12:02:24;;;;;;;11.15;10.45;;;9.30;63.80;;;;;;5133742;27;20229;-58
2022/04/09 12:04:54;;;;;;;10.10;9.40;;;9.10;59.90;;;;;;5133549;27;20676;-60
2022/04/09 12:07:22;;;;;;;10.52;9.98;;;9.00;62.70;;;;;;5133419;27;20211;-59
2022/04/09 12:09:49;;;;;;;9.90;9.13;;;8.90;63.00;;;;;;5133579;27;20245;-59
2022/04/09 12:12:19;;;;;;;10.68;9.95;;;8.80;62.50;;;;;;5132212;27;20471;-60
2022/04/09 12:14:54;;;;;;;10.63;10.02;;;8.60;61.30;;;;;;5133513;27;20202;-59
2022/04/09 12:17:22;;;;;;;10.55;9.75;;;8.40;60.80;;;;;;5134073;27;20202;-59
2022/04/09 12:19:51;;;;;;;7.90;7.43;;;8.30;62.30;;;;;;5137604;27;20227;-56
2022/04/09 12:22:20;;;;;;;9.43;8.50;;;8.30;60.80;;;;;;5137435;27;20203;-59
2022/04/09 12:24:52;;;;;;;10.00;9.45;;;8.20;60.70;;;;;;5137648;27;20297;-59
2022/04/09 12:27:19;;;;;;;9.82;9.23;;;7.70;61.80;;;;;;5136203;27;20202;-58
2022/04/09 12:29:52;;;;;;;7.15;6.53;;;7.80;64.20;;;;;;5137488;27;20209;-58
2022/04/09 12:32:23;;;;;;;9.38;8.57;;;8.00;63.40;;;;;;5137170;27;20256;-59
2022/04/09 12:35:03;;;;;;;9.75;9.05;;;8.00;63.50;;;;;;5137277;27;20234;-58
2022/04/09 12:37:30;;;;;;;9.65;9.00;;;8.10;63.10;;;;;;5137216;27;20218;-57
2022/04/09 12:40:15;;;;;;;10.15;9.55;;;8.10;62.40;;;;;;5137102;27;20318;-58
2022/04/09 12:42:42;;;;;;;9.82;9.02;;;7.90;62.10;;;;;;5135949;27;20656;-58
2022/04/09 12:45:11;;;;;;;8.15;7.45;;;8.00;64.30;;;;;;5137137;27;20198;-58
2022/04/09 12:47:38;;;;;;;9.10;8.60;;;8.50;62.60;;;;;;5137116;27;20558;-57
2022/04/09 12:50:19;;;;;;;7.68;6.93;;;8.90;61.90;;;;;;5136982;27;20226;-57
2022/04/09 12:52:46;;;;;;;8.60;7.90;;;9.40;60.00;;;;;;5136791;27;20561;-57
2022/04/09 12:55:16;;;;;;;9.98;9.40;;;9.50;60.40;;;;;;5137131;27;20293;-58
2022/04/09 12:57:43;;;;;;;8.75;8.10;;;9.30;59.60;;;;;;5135214;27;20199;-58
2022/04/09 13:00:11;;;;;;;9.57;8.77;;;9.50;60.10;;;;;;5136679;27;20313;-57
2022/04/09 13:02:38;;;;;;;9.57;8.88;;;9.80;60.30;;;;;;5136784;27;20195;-57